createdAt,value
2023-02-21T00:01:47.270Z,101112.59
2023-02-21T00:04:32.313Z,101107.69
2023-02-21T00:07:18.958Z,101098.03
2023-02-21T00:10:04.478Z,101092.19
2023-02-21T00:12:49.831Z,101094.41
2023-02-21T00:15:35.320Z,101097.91
2023-02-21T00:18:20.714Z,101101.97
2023-02-21T00:21:05.996Z,101090.19
2023-02-21T00:23:54.330Z,101093.69
2023-02-21T00:26:40.664Z,101086.41
2023-02-21T00:29:26.429Z,101100.66
2023-02-21T00:32:11.919Z,101090.31
2023-02-21T00:34:56.990Z,101092.69
2023-02-21T00:37:42.746Z,101078.69
2023-02-21T00:40:32.007Z,101079.34
2023-02-21T00:43:17.304Z,101087.44
2023-02-21T00:46:02.589Z,101088.25
2023-02-21T00:48:47.903Z,101093.69
2023-02-21T00:51:33.495Z,101084.63
2023-02-21T00:54:19.012Z,101095.63
2023-02-21T00:57:06.098Z,101090.31
2023-02-21T00:59:51.340Z,101091.00
2023-02-21T01:02:36.612Z,101094.38
2023-02-21T01:05:22.486Z,101090.47
2023-02-21T01:08:07.963Z,101088.22
2023-02-21T01:10:53.256Z,101094.97
2023-02-21T01:13:40.045Z,101083.50
2023-02-21T01:16:25.936Z,101089.22
2023-02-21T01:19:11.227Z,101090.38
2023-02-21T01:21:56.512Z,101088.00
2023-02-21T01:24:41.705Z,101080.47
2023-02-21T01:27:27.242Z,101077.81
2023-02-21T01:30:14.089Z,101077.94
2023-02-21T01:32:59.126Z,101083.97
2023-02-21T01:35:44.488Z,101074.91
2023-02-21T01:38:29.721Z,101078.41
2023-02-21T01:41:15.432Z,101075.75
2023-02-21T01:44:16.053Z,101074.09
2023-02-21T01:47:02.645Z,101063.03
2023-02-21T01:49:49.013Z,101067.13
2023-02-21T01:52:34.740Z,101065.72
2023-02-21T01:55:21.601Z,101055.66
2023-02-21T01:58:07.626Z,101059.69
2023-02-21T02:00:52.886Z,101069.63
2023-02-21T02:03:40.012Z,101064.00
2023-02-21T02:06:28.471Z,101057.75
2023-02-21T02:09:13.755Z,101060.31
2023-02-21T02:12:12.205Z,101053.22
2023-02-21T02:15:10.788Z,101052.72
2023-02-21T02:17:50.166Z,101055.16
2023-02-21T02:20:54.285Z,101054.56
2023-02-21T02:23:40.784Z,101058.84
2023-02-21T02:26:50.174Z,101057.72
2023-02-21T02:29:40.334Z,101047.03
2023-02-21T02:32:37.792Z,101051.94
2023-02-21T02:35:10.908Z,101047.13
2023-02-21T02:37:48.531Z,101039.84
2023-02-21T02:40:26.638Z,101037.50
2023-02-21T02:43:05.072Z,101053.06
2023-02-21T02:45:38.518Z,101046.22
2023-02-21T02:48:14.142Z,101047.03
2023-02-21T02:50:46.954Z,101044.72
2023-02-21T02:53:18.781Z,101043.97
2023-02-21T02:55:52.571Z,101057.81
2023-02-21T02:58:23.921Z,101057.72
2023-02-21T03:01:04.191Z,101052.97
2023-02-21T03:03:58.426Z,101049.50
2023-02-21T03:06:37.202Z,101059.69
2023-02-21T03:09:13.987Z,101057.72
2023-02-21T03:11:47.604Z,101054.13
2023-02-21T03:14:21.151Z,101051.28
2023-02-21T03:16:52.370Z,101052.22
2023-02-21T03:19:25.133Z,101054.09
2023-02-21T03:21:58.869Z,101061.25
2023-02-21T03:24:28.488Z,101053.63
2023-02-21T03:27:00.624Z,101055.34
2023-02-21T03:29:28.582Z,101046.44
2023-02-21T03:31:59.325Z,101052.19
2023-02-21T03:34:27.458Z,101049.09
2023-02-21T03:36:57.150Z,101043.94
2023-02-21T03:39:24.780Z,101048.06
2023-02-21T03:41:52.430Z,101054.66
2023-02-21T03:44:20.146Z,101052.72
2023-02-21T03:46:47.835Z,101052.63
2023-02-21T03:49:15.548Z,101050.00
2023-02-21T03:51:43.193Z,101049.88
2023-02-21T03:54:12.155Z,101050.84
2023-02-21T03:56:42.128Z,101052.44
2023-02-21T03:59:10.257Z,101049.19
2023-02-21T04:01:37.989Z,101050.97
2023-02-21T04:04:05.806Z,101052.84
2023-02-21T04:06:33.480Z,101049.50
2023-02-21T04:09:01.092Z,101040.22
2023-02-21T04:11:30.055Z,101041.47
2023-02-21T04:13:57.696Z,101046.38
2023-02-21T04:16:25.496Z,101047.78
2023-02-21T04:18:53.206Z,101049.41
2023-02-21T04:21:21.191Z,101046.66
2023-02-21T04:23:48.949Z,101037.66
2023-02-21T04:26:16.631Z,101042.97
2023-02-21T04:28:45.650Z,101041.91
2023-02-21T04:31:16.105Z,101028.44
2023-02-21T04:33:44.577Z,101037.66
2023-02-21T04:36:12.315Z,101039.69
2023-02-21T04:38:39.991Z,101034.06
2023-02-21T04:41:10.421Z,101035.88
2023-02-21T04:43:38.119Z,101040.19
2023-02-21T04:46:07.315Z,101035.66
2023-02-21T04:48:35.065Z,101040.69
2023-02-21T04:51:14.701Z,101035.41
2023-02-21T04:53:43.308Z,101034.19
2023-02-21T04:56:12.663Z,101026.63
2023-02-21T04:58:45.168Z,101031.94
2023-02-21T05:01:15.949Z,101039.53
2023-02-21T05:03:44.005Z,101034.59
2023-02-21T05:06:11.730Z,101034.59
2023-02-21T05:08:39.352Z,101031.72
2023-02-21T05:11:08.815Z,101035.22
2023-02-21T05:13:36.462Z,101038.06
2023-02-21T05:16:04.241Z,101037.00
2023-02-21T05:18:34.568Z,101037.13
2023-02-21T05:21:03.368Z,101032.69
2023-02-21T05:23:39.929Z,101030.50
2023-02-21T05:26:10.396Z,101035.22
2023-02-21T05:28:38.823Z,101035.22
2023-02-21T05:31:07.514Z,101032.69
2023-02-21T05:33:36.560Z,101037.13
2023-02-21T05:36:04.758Z,101043.25
2023-02-21T05:38:32.668Z,101044.22
2023-02-21T05:41:00.845Z,101039.53
2023-02-21T05:43:33.730Z,101036.91
2023-02-21T05:46:01.430Z,101035.66
2023-02-21T05:48:29.084Z,101040.59
2023-02-21T05:50:58.122Z,101042.66
2023-02-21T05:53:25.834Z,101039.66
2023-02-21T05:55:53.479Z,101046.06
2023-02-21T05:58:21.149Z,101040.28
2023-02-21T06:00:48.800Z,101037.41
2023-02-21T06:03:16.598Z,101033.28
2023-02-21T06:05:44.306Z,101027.91
2023-02-21T06:08:14.004Z,101026.94
2023-02-21T06:10:41.726Z,101029.94
2023-02-21T06:13:09.450Z,101031.63
2023-02-21T06:15:37.155Z,101034.00
2023-02-21T06:18:05.163Z,101029.44
2023-02-21T06:20:32.846Z,101029.31
2023-02-21T06:23:00.464Z,101029.28
2023-02-21T06:25:29.512Z,101030.34
2023-02-21T06:27:57.132Z,101033.84
2023-02-21T06:30:24.838Z,101042.47
2023-02-21T06:32:52.611Z,101039.69
2023-02-21T06:35:20.213Z,101033.25
2023-02-21T06:37:47.905Z,101042.34
2023-02-21T06:40:15.801Z,101042.34
2023-02-21T06:42:44.836Z,101045.94
2023-02-21T06:45:12.520Z,101051.22
2023-02-21T06:47:40.164Z,101049.69
2023-02-21T06:50:10.161Z,101059.41
2023-02-21T06:52:38.118Z,101051.84
2023-02-21T06:55:06.614Z,101053.88
2023-02-21T06:57:34.331Z,101053.72
2023-02-21T07:00:03.388Z,101052.16
2023-02-21T07:02:31.084Z,101048.28
2023-02-21T07:04:58.820Z,101055.75
2023-02-21T07:07:26.512Z,101052.53
2023-02-21T07:09:54.086Z,101050.63
2023-02-21T07:12:21.926Z,101054.13
2023-02-21T07:14:49.510Z,101054.59
2023-02-21T07:17:18.534Z,101058.19
2023-02-21T07:19:46.213Z,101057.81
2023-02-21T07:22:13.969Z,101053.53
2023-02-21T07:24:42.547Z,101051.47
2023-02-21T07:27:10.298Z,101044.31
2023-02-21T07:29:38.002Z,101044.31
2023-02-21T07:32:06.135Z,101051.34
2023-02-21T07:34:35.112Z,101054.78
2023-02-21T07:37:02.893Z,101052.50
2023-02-21T07:39:30.507Z,101044.91
2023-02-21T07:41:58.290Z,101042.63
2023-02-21T07:44:25.880Z,101047.06
2023-02-21T07:46:53.554Z,101049.19
2023-02-21T07:49:21.267Z,101053.41
2023-02-21T07:51:50.339Z,101054.31
2023-02-21T07:54:18.957Z,101049.75
2023-02-21T07:56:47.782Z,101043.91
2023-02-21T07:59:16.327Z,101047.50
2023-02-21T08:01:44.009Z,101048.16
2023-02-21T08:04:11.879Z,101057.44
2023-02-21T08:06:39.613Z,101050.47
2023-02-21T08:09:08.634Z,101053.56
2023-02-21T08:11:36.786Z,101044.94
2023-02-21T08:14:04.607Z,101042.88
2023-02-21T08:16:34.495Z,101038.13
2023-02-21T08:19:02.528Z,101043.16
2023-02-21T08:21:30.152Z,101040.50
2023-02-21T08:23:57.920Z,101045.06
2023-02-21T08:26:27.119Z,101051.66
2023-02-21T08:28:54.715Z,101040.59
2023-02-21T08:31:23.045Z,101045.03
2023-02-21T08:33:50.695Z,101043.59
2023-02-21T08:36:18.317Z,101046.78
2023-02-21T08:38:46.017Z,101041.31
2023-02-21T08:41:14.040Z,101043.94
2023-02-21T08:43:43.294Z,101048.75
2023-02-21T08:46:10.891Z,101050.97
2023-02-21T08:48:38.524Z,101046.44
2023-02-21T08:51:06.492Z,101045.91
2023-02-21T08:53:34.048Z,101045.22
2023-02-21T08:56:01.667Z,101041.09
2023-02-21T08:58:29.247Z,101047.13
2023-02-21T09:00:58.199Z,101040.28
2023-02-21T09:03:25.793Z,101026.06
2023-02-21T09:05:53.419Z,101030.56
2023-02-21T09:08:22.562Z,101027.50
2023-02-21T09:10:50.362Z,101018.72
2023-02-21T09:13:18.157Z,101025.63
2023-02-21T09:15:45.776Z,101023.56
2023-02-21T09:18:14.736Z,101016.84
2023-02-21T09:20:42.753Z,101007.22
2023-02-21T09:23:10.390Z,101006.81
2023-02-21T09:25:38.160Z,101005.44
2023-02-21T09:28:05.819Z,101003.81
2023-02-21T09:30:33.411Z,100998.00
2023-02-21T09:33:01.176Z,100991.56
2023-02-21T09:35:30.872Z,100992.44
2023-02-21T09:37:59.456Z,100988.88
2023-02-21T09:40:36.897Z,100992.84
2023-02-21T09:43:06.281Z,100986.50
2023-02-21T09:45:37.356Z,100982.78
2023-02-21T09:48:09.958Z,100978.94
2023-02-21T09:50:45.735Z,100980.00
2023-02-21T09:53:20.144Z,100974.38
2023-02-21T09:55:51.290Z,100977.94
2023-02-21T09:58:21.704Z,100964.47
2023-02-21T10:00:49.529Z,100962.97
2023-02-21T10:03:33.399Z,100962.97
2023-02-21T10:06:11.333Z,100961.34
2023-02-21T10:08:48.201Z,100957.25
2023-02-21T10:11:33.977Z,100955.06
2023-02-21T10:14:10.958Z,100958.75
2023-02-21T10:16:44.061Z,100966.97
2023-02-21T10:19:19.190Z,100970.75
2023-02-21T10:21:50.789Z,100963.72
2023-02-21T10:24:22.215Z,100966.88
2023-02-21T10:26:59.663Z,100963.59
2023-02-21T10:29:36.778Z,100957.25
2023-02-21T10:32:05.256Z,100963.72
2023-02-21T10:34:35.189Z,100959.28
2023-02-21T10:37:24.002Z,100955.28
2023-02-21T10:39:56.735Z,100963.09
2023-02-21T10:42:31.804Z,100958.25
2023-02-21T10:45:00.048Z,100958.34
2023-02-21T10:47:35.262Z,100947.94
2023-02-21T10:50:07.048Z,100952.47
2023-02-21T10:52:47.651Z,100945.09
2023-02-21T10:55:31.678Z,100952.59
2023-02-21T10:58:07.028Z,100942.84
2023-02-21T11:00:37.390Z,100950.19
2023-02-21T11:03:07.697Z,100938.28
2023-02-21T11:05:38.896Z,100938.38
2023-02-21T11:08:09.540Z,100952.88
2023-02-21T11:10:41.454Z,100946.53
2023-02-21T11:13:16.166Z,100939.97
2023-02-21T11:15:44.020Z,100933.34
2023-02-21T11:18:15.984Z,100928.25
2023-02-21T11:20:44.103Z,100925.59
2023-02-21T11:23:28.817Z,100912.91
2023-02-21T11:26:08.755Z,100907.56
2023-02-21T11:28:39.492Z,100911.78
2023-02-21T11:31:14.716Z,100903.44
2023-02-21T11:33:49.830Z,100892.53
2023-02-21T11:36:20.882Z,100900.56
2023-02-21T11:39:07.926Z,100891.94
2023-02-21T11:41:46.242Z,100876.03
2023-02-21T11:44:29.373Z,100882.69
2023-02-21T11:47:08.196Z,100875.72
2023-02-21T11:49:51.121Z,100873.47
2023-02-21T11:52:24.443Z,100869.78
2023-02-21T11:54:53.656Z,100863.19
2023-02-21T11:57:30.952Z,100869.84
2023-02-21T12:00:24.103Z,100855.31
2023-02-21T12:03:05.496Z,100856.38
2023-02-21T12:05:44.213Z,100855.69
2023-02-21T12:08:37.347Z,100851.03
2023-02-21T12:11:18.031Z,100844.75
2023-02-21T12:13:57.744Z,100841.88
2023-02-21T12:16:38.141Z,100838.13
2023-02-21T12:19:29.918Z,100829.50
2023-02-21T12:22:08.585Z,100825.00
2023-02-21T12:24:53.510Z,100821.16
2023-02-21T12:27:31.956Z,100810.66
2023-02-21T12:30:10.272Z,100809.97
2023-02-21T12:32:50.305Z,100806.69
2023-02-21T12:35:54.376Z,100814.63
2023-02-21T12:38:30.531Z,100802.38
2023-02-21T12:41:09.959Z,100799.44
2023-02-21T12:43:49.664Z,100792.47
2023-02-21T12:46:26.330Z,100789.47
2023-02-21T12:49:01.133Z,100790.69
2023-02-21T12:51:34.731Z,100791.19
2023-02-21T12:54:05.944Z,100787.56
2023-02-21T12:56:39.289Z,100775.69
2023-02-21T12:59:16.728Z,100769.53
2023-02-21T13:01:48.932Z,100764.31
2023-02-21T13:04:24.021Z,100763.75
2023-02-21T13:06:58.260Z,100751.50
2023-02-21T13:09:33.600Z,100751.66
2023-02-21T13:12:08.894Z,100751.78
2023-02-21T13:14:43.617Z,100746.75
2023-02-21T13:17:15.636Z,100735.94
2023-02-21T13:19:47.894Z,100745.75
2023-02-21T13:23:10.792Z,100730.75
2023-02-21T13:25:54.613Z,100727.59
2023-02-21T13:28:24.934Z,100721.53
2023-02-21T13:30:58.843Z,100721.78
2023-02-21T13:33:31.447Z,100709.84
2023-02-21T13:36:02.114Z,100713.31
2023-02-21T13:38:32.279Z,100716.31
2023-02-21T13:41:07.365Z,100715.69
2023-02-21T13:43:37.528Z,100718.53
2023-02-21T13:46:40.720Z,100710.03
2023-02-21T13:49:42.914Z,100694.78
2023-02-21T13:52:51.922Z,100693.34
2023-02-21T13:55:26.232Z,100693.06
2023-02-21T13:58:25.488Z,100688.66
2023-02-21T14:00:55.065Z,100687.97
2023-02-21T14:03:35.191Z,100687.22
2023-02-21T14:06:38.143Z,100679.69
2023-02-21T14:09:11.096Z,100675.50
2023-02-21T14:11:44.216Z,100667.72
2023-02-21T14:14:23.049Z,100678.56
2023-02-21T14:16:54.816Z,100674.03
2023-02-21T14:19:26.665Z,100668.97
2023-02-21T14:22:03.931Z,100671.19
2023-02-21T14:24:34.151Z,100666.34
2023-02-21T14:27:05.562Z,100677.50
2023-02-21T14:29:36.064Z,100678.47
2023-02-21T14:32:38.811Z,100670.31
2023-02-21T14:35:24.372Z,100670.31
2023-02-21T14:38:00.640Z,100665.41
2023-02-21T14:40:35.222Z,100668.44
2023-02-21T14:43:18.431Z,100657.69
2023-02-21T14:46:01.237Z,100654.38
2023-02-21T14:49:02.029Z,100654.91
2023-02-21T14:52:03.372Z,100646.06
2023-02-21T14:55:00.064Z,100652.66
2023-02-21T14:57:50.030Z,100649.06
2023-02-21T15:00:26.301Z,100658.97
2023-02-21T15:02:59.267Z,100645.19
2023-02-21T15:05:30.140Z,100647.22
2023-02-21T15:08:06.136Z,100649.66
2023-02-21T15:10:42.147Z,100650.81
2023-02-21T15:13:22.727Z,100644.91
2023-02-21T15:15:58.137Z,100644.66
2023-02-21T15:18:28.588Z,100637.81
2023-02-21T15:21:06.368Z,100639.69
2023-02-21T15:23:34.987Z,100632.56
2023-02-21T15:26:19.229Z,100631.22
2023-02-21T15:28:46.965Z,100631.31
2023-02-21T15:31:18.058Z,100633.56
2023-02-21T15:33:46.152Z,100626.91
2023-02-21T15:36:19.222Z,100622.66
2023-02-21T15:38:50.265Z,100618.41
2023-02-21T15:41:30.500Z,100616.69
2023-02-21T15:44:03.547Z,100614.56
2023-02-21T15:46:38.486Z,100620.63
2023-02-21T15:49:07.785Z,100609.94
2023-02-21T15:51:39.126Z,100613.34
2023-02-21T15:54:11.309Z,100612.69
2023-02-21T15:56:40.512Z,100604.41
2023-02-21T15:59:14.800Z,100603.09
2023-02-21T16:01:42.987Z,100605.16
2023-02-21T16:04:16.953Z,100601.50
2023-02-21T16:06:51.910Z,100597.88
2023-02-21T16:09:25.568Z,100598.16
2023-02-21T16:11:57.932Z,100596.41
2023-02-21T16:14:31.064Z,100588.94
2023-02-21T16:17:08.636Z,100590.47
2023-02-21T16:19:37.680Z,100598.88
2023-02-21T16:22:15.110Z,100591.19
2023-02-21T16:24:42.833Z,100593.94
2023-02-21T16:27:14.619Z,100593.00
2023-02-21T16:29:42.285Z,100595.38
2023-02-21T16:32:18.374Z,100595.75
2023-02-21T16:34:46.913Z,100596.63
2023-02-21T16:37:15.691Z,100592.56
2023-02-21T16:39:44.294Z,100595.28
2023-02-21T16:42:13.317Z,100587.63
2023-02-21T16:44:41.325Z,100593.69
2023-02-21T16:47:09.200Z,100596.66
2023-02-21T16:49:36.847Z,100594.72
2023-02-21T16:52:04.737Z,100596.06
2023-02-21T16:54:32.461Z,100593.78
2023-02-21T16:57:00.163Z,100592.16
2023-02-21T16:59:29.223Z,100593.88
2023-02-21T17:01:56.988Z,100587.22
2023-02-21T17:04:27.166Z,100594.44
2023-02-21T17:06:57.762Z,100592.66
2023-02-21T17:09:27.677Z,100595.97
2023-02-21T17:11:56.378Z,100600.84
2023-02-21T17:14:24.113Z,100595.69
2023-02-21T17:16:53.172Z,100597.34
2023-02-21T17:19:21.661Z,100599.19
2023-02-21T17:21:49.499Z,100597.19
2023-02-21T17:24:17.510Z,100602.69
2023-02-21T17:26:45.416Z,100611.22
2023-02-21T17:29:13.384Z,100615.28
2023-02-21T17:31:41.096Z,100604.44
2023-02-21T17:34:10.216Z,100609.09
2023-02-21T17:36:37.904Z,100612.81
2023-02-21T17:39:06.212Z,100607.28
2023-02-21T17:41:33.904Z,100609.78
2023-02-21T17:44:01.672Z,100613.81
2023-02-21T17:46:29.341Z,100608.47
2023-02-21T17:48:57.000Z,100611.28
2023-02-21T17:51:27.404Z,100607.78
2023-02-21T17:53:55.442Z,100609.78
2023-02-21T17:56:25.494Z,100612.16
2023-02-21T17:58:55.059Z,100620.44
2023-02-21T18:01:22.701Z,100622.28
2023-02-21T18:03:50.456Z,100611.13
2023-02-21T18:06:18.679Z,100618.63
2023-02-21T18:08:47.750Z,100613.78
2023-02-21T18:11:17.661Z,100611.13
2023-02-21T18:13:45.770Z,100605.63
2023-02-21T18:16:13.536Z,100605.97
2023-02-21T18:18:41.501Z,100607.31
2023-02-21T18:21:10.153Z,100608.47
2023-02-21T18:23:39.198Z,100598.16
2023-02-21T18:26:08.139Z,100603.81
2023-02-21T18:28:35.768Z,100602.81
2023-02-21T18:31:03.586Z,100602.97
2023-02-21T18:33:32.460Z,100601.47
2023-02-21T18:36:00.562Z,100594.97
2023-02-21T18:38:28.824Z,100593.78
2023-02-21T18:41:01.629Z,100593.47
2023-02-21T18:43:31.804Z,100599.47
2023-02-21T18:45:59.753Z,100599.09
2023-02-21T18:48:27.471Z,100599.94
2023-02-21T18:50:55.314Z,100596.09
2023-02-21T18:53:23.364Z,100595.59
2023-02-21T18:55:51.308Z,100598.75
2023-02-21T18:58:18.968Z,100599.22
2023-02-21T19:00:49.529Z,100596.41
2023-02-21T19:03:17.273Z,100604.06
2023-02-21T19:05:44.924Z,100597.06
2023-02-21T19:08:12.504Z,100594.03
2023-02-21T19:10:40.171Z,100596.03
2023-02-21T19:13:07.770Z,100594.97
2023-02-21T19:15:35.739Z,100595.31
2023-02-21T19:18:04.999Z,100596.59
2023-02-21T19:20:32.708Z,100601.59
2023-02-21T19:23:00.501Z,100601.22
2023-02-21T19:25:28.247Z,100601.03
2023-02-21T19:28:00.288Z,100598.19
2023-02-21T19:30:32.866Z,100608.09
2023-02-21T19:33:06.655Z,100603.94
2023-02-21T19:35:35.804Z,100608.91
2023-02-21T19:38:05.582Z,100609.00
2023-02-21T19:40:33.942Z,100609.84
2023-02-21T19:43:01.736Z,100606.59
2023-02-21T19:45:29.980Z,100601.09
2023-02-21T19:47:57.674Z,100609.59
2023-02-21T19:50:26.730Z,100603.16
2023-02-21T19:52:56.051Z,100604.16
2023-02-21T19:55:23.858Z,100602.19
2023-02-21T19:57:51.688Z,100604.47
2023-02-21T20:00:20.621Z,100606.44
2023-02-21T20:02:49.161Z,100601.81
2023-02-21T20:05:18.044Z,100615.72
2023-02-21T20:07:47.144Z,100604.91
2023-02-21T20:10:18.017Z,100619.69
2023-02-21T20:12:45.954Z,100606.63
2023-02-21T20:15:13.563Z,100604.44
2023-02-21T20:17:41.790Z,100608.59
2023-02-21T20:20:11.937Z,100612.16
2023-02-21T20:22:39.984Z,100615.16
2023-02-21T20:25:09.648Z,100619.72
2023-02-21T20:27:37.439Z,100617.63
2023-02-21T20:30:06.342Z,100612.16
2023-02-21T20:32:33.987Z,100614.50
2023-02-21T20:35:01.934Z,100606.03
2023-02-21T20:37:31.395Z,100617.22
2023-02-21T20:40:00.330Z,100615.41
2023-02-21T20:42:29.401Z,100610.66
2023-02-21T20:44:57.356Z,100608.97
2023-02-21T20:47:24.967Z,100615.41
2023-02-21T20:49:52.695Z,100610.78
2023-02-21T20:52:20.340Z,100610.25
2023-02-21T20:54:47.951Z,100608.91
2023-02-21T20:57:15.640Z,100612.00
2023-02-21T20:59:46.608Z,100606.81
2023-02-21T21:02:14.419Z,100602.53
2023-02-21T21:04:45.795Z,100604.16
2023-02-21T21:07:19.690Z,100603.78
2023-02-21T21:09:47.498Z,100601.97
2023-02-21T21:12:17.815Z,100600.31
2023-02-21T21:14:48.912Z,100609.41
2023-02-21T21:17:18.509Z,100605.38
2023-02-21T21:19:47.906Z,100610.69
2023-02-21T21:22:18.534Z,100608.75
2023-02-21T21:24:46.237Z,100612.91
2023-02-21T21:27:15.382Z,100603.22
2023-02-21T21:29:45.182Z,100611.50
2023-02-21T21:32:16.612Z,100607.38
2023-02-21T21:34:45.614Z,100613.09
2023-02-21T21:37:14.453Z,100606.75
2023-02-21T21:39:44.678Z,100601.69
2023-02-21T21:42:16.775Z,100607.00
2023-02-21T21:44:46.508Z,100597.50
2023-02-21T21:47:15.881Z,100604.50
2023-02-21T21:49:43.625Z,100599.72
2023-02-21T21:52:11.504Z,100597.50
2023-02-21T21:54:41.102Z,100603.97
2023-02-21T21:57:09.595Z,100600.56
2023-02-21T21:59:40.830Z,100606.88
2023-02-21T22:02:10.271Z,100602.41
2023-02-21T22:04:40.107Z,100604.34
2023-02-21T22:07:09.393Z,100601.53
2023-02-21T22:09:37.631Z,100595.69
2023-02-21T22:12:07.706Z,100596.28
2023-02-21T22:14:35.524Z,100593.75
2023-02-21T22:17:05.241Z,100595.56
2023-02-21T22:19:34.527Z,100586.50
2023-02-21T22:22:08.141Z,100582.50
2023-02-21T22:24:36.022Z,100586.84
2023-02-21T22:27:03.868Z,100583.38
2023-02-21T22:29:31.788Z,100582.59
2023-02-21T22:31:59.633Z,100576.03
2023-02-21T22:34:27.466Z,100577.56
2023-02-21T22:36:57.320Z,100576.34
2023-02-21T22:39:27.543Z,100573.25
2023-02-21T22:41:55.532Z,100571.31
2023-02-21T22:44:24.795Z,100569.63
2023-02-21T22:46:58.176Z,100572.84
2023-02-21T22:49:26.959Z,100564.34
2023-02-21T22:51:54.914Z,100566.16
2023-02-21T22:54:22.568Z,100562.13
2023-02-21T22:56:54.995Z,100564.78
2023-02-21T22:59:25.282Z,100559.31
2023-02-21T23:01:53.408Z,100556.25
2023-02-21T23:04:26.539Z,100559.16
2023-02-21T23:06:55.292Z,100557.34
2023-02-21T23:09:24.501Z,100551.50
2023-02-21T23:11:58.524Z,100549.97
2023-02-21T23:14:27.402Z,100549.72
2023-02-21T23:16:57.291Z,100544.81
2023-02-21T23:19:25.148Z,100547.34
2023-02-21T23:21:54.528Z,100547.34
2023-02-21T23:24:23.223Z,100547.22
2023-02-21T23:26:54.722Z,100544.59
2023-02-21T23:29:25.012Z,100544.31
2023-02-21T23:31:56.870Z,100542.06
2023-02-21T23:34:39.285Z,100534.25
2023-02-21T23:37:07.463Z,100539.56
2023-02-21T23:39:35.218Z,100537.47
2023-02-21T23:42:04.749Z,100539.16
2023-02-21T23:44:35.961Z,100539.84
2023-02-21T23:47:05.896Z,100533.44
2023-02-21T23:49:33.805Z,100534.00
2023-02-21T23:52:02.058Z,100536.25
2023-02-21T23:54:30.030Z,100524.69
2023-02-21T23:57:00.424Z,100525.09
2023-02-21T23:59:29.838Z,100526.75
